createdAt,value
2023-10-13T00:01:13.660Z,1.65
2023-10-13T00:03:41.945Z,1.88
2023-10-13T00:06:10.243Z,1.93
2023-10-13T00:08:38.253Z,1.98
2023-10-13T00:11:06.378Z,1.98
2023-10-13T00:14:03.317Z,2.05
2023-10-13T00:16:32.398Z,1.67
2023-10-13T00:19:00.131Z,1.80
2023-10-13T00:21:33.940Z,1.85
2023-10-13T00:24:13.638Z,2.08
2023-10-13T00:26:44.509Z,2.15
2023-10-13T00:29:15.157Z,2.15
2023-10-13T00:31:44.873Z,1.53
2023-10-13T00:34:21.051Z,1.75
2023-10-13T00:37:12.167Z,2.35
2023-10-13T00:39:46.181Z,1.98
2023-10-13T00:42:25.340Z,2.15
2023-10-13T00:44:56.108Z,1.57
2023-10-13T00:47:44.466Z,2.25
2023-10-13T00:50:16.479Z,1.73
2023-10-13T00:52:48.398Z,1.77
2023-10-13T00:55:18.542Z,1.90
2023-10-13T00:57:48.545Z,1.50
2023-10-13T01:00:30.150Z,1.48
2023-10-13T01:02:58.370Z,1.67
2023-10-13T01:05:27.560Z,1.52
2023-10-13T01:07:56.329Z,1.88
2023-10-13T01:10:28.933Z,1.60
2023-10-13T01:12:57.899Z,1.50
2023-10-13T01:15:34.450Z,2.05
2023-10-13T01:18:18.314Z,2.08
2023-10-13T01:20:53.606Z,1.70
2023-10-13T01:23:25.665Z,1.90
2023-10-13T01:25:55.284Z,1.77
2023-10-13T01:28:23.368Z,2.05
2023-10-13T01:30:54.685Z,2.03
2023-10-13T01:33:28.597Z,2.05
2023-10-13T01:36:00.141Z,1.73
2023-10-13T01:38:34.886Z,1.75
2023-10-13T01:41:06.083Z,1.85
2023-10-13T01:43:33.799Z,2.25
2023-10-13T01:46:01.488Z,2.30
2023-10-13T01:48:29.739Z,1.77
2023-10-13T01:51:01.282Z,1.98
2023-10-13T01:53:30.266Z,1.88
2023-10-13T01:56:00.622Z,2.25
2023-10-13T01:58:30.796Z,1.80
2023-10-13T02:00:58.498Z,2.00
2023-10-13T02:03:29.030Z,1.80
2023-10-13T02:05:59.516Z,2.28
2023-10-13T02:08:27.682Z,2.05
2023-10-13T02:10:56.802Z,1.98
2023-10-13T02:13:26.956Z,2.00
2023-10-13T02:15:58.711Z,1.88
2023-10-13T02:18:27.944Z,1.85
2023-10-13T02:20:58.557Z,1.95
2023-10-13T02:23:46.722Z,1.80
2023-10-13T02:26:31.463Z,2.30
2023-10-13T02:29:09.491Z,1.80
2023-10-13T02:31:38.341Z,2.15
2023-10-13T02:34:14.789Z,1.95
2023-10-13T02:36:49.961Z,1.83
2023-10-13T02:39:17.948Z,1.73
2023-10-13T02:41:49.663Z,1.70
2023-10-13T02:44:43.975Z,1.90
2023-10-13T02:47:15.873Z,2.22
2023-10-13T02:49:49.183Z,1.70
2023-10-13T02:52:17.042Z,1.87
2023-10-13T02:54:48.640Z,1.70
2023-10-13T02:57:19.364Z,2.13
2023-10-13T02:59:58.454Z,2.00
2023-10-13T03:02:27.328Z,1.75
2023-10-13T03:05:01.157Z,1.73
2023-10-13T03:07:32.652Z,2.03
2023-10-13T03:10:11.475Z,1.85
2023-10-13T03:12:41.594Z,1.85
2023-10-13T03:15:18.910Z,2.00
2023-10-13T03:17:47.415Z,1.80
2023-10-13T03:20:23.879Z,1.63
2023-10-13T03:22:54.359Z,1.77
2023-10-13T03:25:31.342Z,1.67
2023-10-13T03:28:02.237Z,1.60
2023-10-13T03:30:37.336Z,1.70
2023-10-13T03:33:13.385Z,1.90
2023-10-13T03:35:43.688Z,1.67
2023-10-13T03:38:19.091Z,2.05
2023-10-13T03:40:58.023Z,1.98
2023-10-13T03:43:25.955Z,1.87
2023-10-13T03:46:02.238Z,2.15
2023-10-13T03:48:30.421Z,1.80
2023-10-13T03:51:08.303Z,1.92
2023-10-13T03:53:56.565Z,1.85
2023-10-13T03:56:32.870Z,2.10
2023-10-13T03:59:07.055Z,1.75
2023-10-13T04:01:44.822Z,2.10
2023-10-13T04:04:31.254Z,1.75
2023-10-13T04:07:11.316Z,1.77
2023-10-13T04:09:39.891Z,2.10
2023-10-13T04:12:28.038Z,2.28
2023-10-13T04:15:07.733Z,3.03
2023-10-13T04:17:42.403Z,2.33
2023-10-13T04:20:12.418Z,2.08
2023-10-13T04:22:47.601Z,1.93
2023-10-13T04:25:45.002Z,1.90
2023-10-13T04:28:18.029Z,2.45
2023-10-13T04:31:00.551Z,2.00
2023-10-13T04:33:37.914Z,2.17
2023-10-13T04:36:27.003Z,1.87
2023-10-13T04:38:58.051Z,1.83
2023-10-13T04:41:38.023Z,2.08
2023-10-13T04:44:24.949Z,2.28
2023-10-13T04:46:53.142Z,2.15
2023-10-13T04:49:48.462Z,2.03
2023-10-13T04:52:46.286Z,1.58
2023-10-13T04:55:44.898Z,2.55
2023-10-13T04:58:16.346Z,2.28
2023-10-13T05:01:16.015Z,2.30
2023-10-13T05:04:02.054Z,2.20
2023-10-13T05:06:44.930Z,2.00
2023-10-13T05:09:32.768Z,2.38
2023-10-13T05:12:18.948Z,2.45
2023-10-13T05:15:06.446Z,2.15
2023-10-13T05:17:53.605Z,2.27
2023-10-13T05:20:39.791Z,2.25
2023-10-13T05:23:25.991Z,2.35
2023-10-13T05:26:12.187Z,2.15
2023-10-13T05:28:58.143Z,2.45
2023-10-13T05:31:44.518Z,2.20
2023-10-13T05:34:30.741Z,2.25
2023-10-13T05:37:17.245Z,2.30
2023-10-13T05:40:06.605Z,1.95
2023-10-13T05:42:53.040Z,1.98
2023-10-13T05:45:39.922Z,2.20
2023-10-13T05:48:15.482Z,2.13
2023-10-13T05:50:58.865Z,2.40
2023-10-13T05:53:44.798Z,2.22
2023-10-13T05:56:30.919Z,2.42
2023-10-13T05:59:17.356Z,2.10
2023-10-13T06:02:03.844Z,2.50
2023-10-13T06:04:50.718Z,2.40
2023-10-13T06:07:37.205Z,2.42
2023-10-13T06:10:23.738Z,2.05
2023-10-13T06:13:10.055Z,2.00
2023-10-13T06:15:56.925Z,2.22
2023-10-13T06:18:43.202Z,2.78
2023-10-13T06:21:29.565Z,2.50
2023-10-13T06:24:15.935Z,2.35
2023-10-13T06:27:02.043Z,2.83
2023-10-13T06:29:29.652Z,2.05
2023-10-13T06:31:59.318Z,2.90
2023-10-13T06:34:39.170Z,2.97
2023-10-13T06:37:25.755Z,2.67
2023-10-13T06:39:57.785Z,5.33
2023-10-13T06:42:28.531Z,3.10
2023-10-13T06:44:57.004Z,3.67
2023-10-13T06:47:25.882Z,2.70
2023-10-13T06:49:56.011Z,3.20
2023-10-13T06:52:24.105Z,4.20
2023-10-13T06:54:52.561Z,4.68
2023-10-13T06:57:23.424Z,3.22
2023-10-13T06:59:52.863Z,4.30
2023-10-13T07:02:28.599Z,4.43
2023-10-13T07:05:09.461Z,6.97
2023-10-13T07:07:38.411Z,5.50
2023-10-13T07:10:10.869Z,5.18
2023-10-13T07:12:39.610Z,6.55
2023-10-13T07:15:21.939Z,3.50
2023-10-13T07:17:56.487Z,4.03
2023-10-13T07:20:30.073Z,3.45
2023-10-13T07:23:07.656Z,3.83
2023-10-13T07:25:38.889Z,3.00
2023-10-13T07:28:09.964Z,4.25
2023-10-13T07:30:51.057Z,3.50
2023-10-13T07:33:21.472Z,3.90
2023-10-13T07:36:01.671Z,4.35
2023-10-13T07:38:32.654Z,4.90
2023-10-13T07:41:08.647Z,3.15
2023-10-13T07:43:38.712Z,2.77
2023-10-13T07:46:13.617Z,3.67
2023-10-13T07:48:46.934Z,4.07
2023-10-13T07:51:17.790Z,3.28
2023-10-13T07:53:46.388Z,2.67
2023-10-13T07:56:14.452Z,3.00
2023-10-13T07:59:05.311Z,2.22
2023-10-13T08:01:35.447Z,2.03
2023-10-13T08:04:06.780Z,2.25
2023-10-13T08:06:37.627Z,3.13
2023-10-13T08:09:09.459Z,2.20
2023-10-13T08:11:41.509Z,2.17
2023-10-13T08:14:18.666Z,1.85
2023-10-13T08:17:02.161Z,2.13
2023-10-13T08:19:50.536Z,2.42
2023-10-13T08:22:20.929Z,2.17
2023-10-13T08:24:50.601Z,1.88
2023-10-13T08:27:38.105Z,2.00
2023-10-13T08:30:27.841Z,2.03
2023-10-13T08:32:55.986Z,2.15
2023-10-13T08:35:35.339Z,1.70
2023-10-13T08:38:26.849Z,1.60
2023-10-13T08:41:01.445Z,1.75
2023-10-13T08:43:44.739Z,2.45
2023-10-13T08:46:26.192Z,1.80
2023-10-13T08:49:27.029Z,2.13
2023-10-13T08:52:10.141Z,1.77
2023-10-13T08:54:46.708Z,1.80
2023-10-13T08:57:32.687Z,2.17
2023-10-13T09:00:20.380Z,1.90
2023-10-13T09:03:06.640Z,2.07
2023-10-13T09:05:43.852Z,1.63
2023-10-13T09:08:17.472Z,1.70
2023-10-13T09:11:07.149Z,1.52
2023-10-13T09:13:45.694Z,1.65
2023-10-13T09:16:44.021Z,2.40
2023-10-13T09:19:13.653Z,2.30
2023-10-13T09:21:44.626Z,2.45
2023-10-13T09:24:39.794Z,2.50
2023-10-13T09:27:08.028Z,2.42
2023-10-13T09:29:40.445Z,3.33
2023-10-13T09:32:13.488Z,5.15
2023-10-13T09:34:46.062Z,4.43
2023-10-13T09:37:22.253Z,2.45
2023-10-13T09:39:54.572Z,3.45
2023-10-13T09:42:25.127Z,3.47
2023-10-13T09:44:57.068Z,3.22
2023-10-13T09:47:32.430Z,2.88
2023-10-13T09:50:07.449Z,2.72
2023-10-13T09:52:39.072Z,3.03
2023-10-13T09:55:19.775Z,3.50
2023-10-13T09:58:00.586Z,3.17
2023-10-13T10:00:36.060Z,3.17
2023-10-13T10:03:16.845Z,4.65
2023-10-13T10:06:01.215Z,4.10
2023-10-13T10:08:35.715Z,5.70
2023-10-13T10:11:42.035Z,5.53
2023-10-13T10:14:18.952Z,4.53
2023-10-13T10:16:55.680Z,6.85
2023-10-13T10:19:23.478Z,5.38
2023-10-13T10:21:51.816Z,4.43
2023-10-13T10:24:31.463Z,4.57
2023-10-13T10:27:05.711Z,5.10
2023-10-13T10:30:03.804Z,5.13
2023-10-13T10:46:19.755Z,3.55
2023-10-13T10:48:49.408Z,3.45
2023-10-13T10:51:23.062Z,2.90
2023-10-13T10:53:53.899Z,3.10
2023-10-13T10:56:38.418Z,2.00
2023-10-13T10:59:20.312Z,1.70
2023-10-13T11:01:48.896Z,2.40
2023-10-13T11:04:17.604Z,1.73
2023-10-13T11:06:51.094Z,2.20
2023-10-13T11:09:33.579Z,1.92
2023-10-13T11:12:07.746Z,2.35
2023-10-13T11:14:35.848Z,2.30
2023-10-13T11:17:06.595Z,2.05
2023-10-13T11:19:39.264Z,2.37
2023-10-13T11:22:36.379Z,1.50
2023-10-13T11:25:12.511Z,1.85
2023-10-13T11:27:50.335Z,2.05
2023-10-13T11:30:26.338Z,1.80
2023-10-13T11:33:00.975Z,2.20
2023-10-13T11:35:50.550Z,3.08
2023-10-13T11:38:27.826Z,2.00
2023-10-13T11:41:05.865Z,2.05
2023-10-13T11:43:44.147Z,2.08
2023-10-13T11:46:20.722Z,2.17
2023-10-13T11:48:48.505Z,1.88
2023-10-13T11:51:25.559Z,1.50
2023-10-13T11:53:53.665Z,2.03
2023-10-13T11:56:22.277Z,4.03
2023-10-13T11:58:51.157Z,2.13
2023-10-13T12:01:19.767Z,2.50
2023-10-13T12:04:10.276Z,2.10
2023-10-13T12:06:38.300Z,1.80
2023-10-13T12:09:16.382Z,1.70
2023-10-13T12:11:46.278Z,1.83
2023-10-13T12:14:29.120Z,1.50
2023-10-13T12:16:57.817Z,1.92
2023-10-13T12:19:26.220Z,2.95
2023-10-13T12:21:58.533Z,3.03
2023-10-13T12:24:38.039Z,2.80
2023-10-13T12:27:24.812Z,2.58
2023-10-13T12:29:54.145Z,2.45
2023-10-13T12:32:32.282Z,1.77
2023-10-13T12:35:03.266Z,2.30
2023-10-13T12:37:45.633Z,2.67
2023-10-13T12:40:38.859Z,1.73
2023-10-13T12:43:25.671Z,1.73
2023-10-13T12:46:12.623Z,1.83
2023-10-13T12:49:05.667Z,2.42
2023-10-13T12:51:33.489Z,2.60
2023-10-13T12:54:38.052Z,2.53
2023-10-13T12:57:10.701Z,2.00
2023-10-13T12:59:40.707Z,1.98
2023-10-13T13:02:09.718Z,1.70
2023-10-13T13:04:45.464Z,2.80
2023-10-13T13:07:15.842Z,2.65
2023-10-13T13:09:43.705Z,3.10
2023-10-13T13:12:14.040Z,1.60
2023-10-13T13:14:47.750Z,2.10
2023-10-13T13:17:15.689Z,2.13
2023-10-13T13:19:43.655Z,2.05
2023-10-13T13:22:14.686Z,1.70
2023-10-13T13:24:46.710Z,1.85
2023-10-13T13:27:23.761Z,1.50
2023-10-13T13:29:51.688Z,1.23
2023-10-13T13:32:26.456Z,1.17
2023-10-13T13:35:10.331Z,1.20
2023-10-13T13:37:38.917Z,1.50
2023-10-13T13:40:17.355Z,1.20
2023-10-13T13:42:46.522Z,2.10
2023-10-13T13:45:33.218Z,2.17
2023-10-13T13:48:03.142Z,2.20
2023-10-13T13:50:33.295Z,1.40
2023-10-13T13:53:10.354Z,1.77
2023-10-13T13:55:41.395Z,1.40
2023-10-13T13:58:14.332Z,1.70
2023-10-13T14:00:49.953Z,1.90
2023-10-13T14:03:33.152Z,1.75
2023-10-13T14:06:18.255Z,1.63
2023-10-13T14:08:53.534Z,1.87
2023-10-13T14:11:44.113Z,1.90
2023-10-13T14:14:22.308Z,2.60
2023-10-13T14:16:50.489Z,2.08
2023-10-13T14:19:30.875Z,2.83
2023-10-13T14:21:59.731Z,2.63
2023-10-13T14:24:34.697Z,2.38
2023-10-13T14:27:10.883Z,2.47
2023-10-13T14:29:43.682Z,1.73
2023-10-13T14:32:13.661Z,2.30
2023-10-13T14:34:42.676Z,2.10
2023-10-13T14:37:14.164Z,2.08
2023-10-13T14:39:42.411Z,3.38
2023-10-13T14:42:10.221Z,2.28
2023-10-13T14:44:38.625Z,2.15
2023-10-13T14:47:10.463Z,2.30
2023-10-13T14:49:38.407Z,1.88
2023-10-13T14:52:06.833Z,2.42
2023-10-13T14:54:34.563Z,2.33
2023-10-13T14:57:05.155Z,2.85
2023-10-13T14:59:40.110Z,2.60
2023-10-13T15:02:08.143Z,2.28
2023-10-13T15:04:36.337Z,3.75
2023-10-13T15:07:04.279Z,2.00
2023-10-13T15:09:32.148Z,2.15
2023-10-13T15:12:00.198Z,1.90
2023-10-13T15:14:27.847Z,2.42
2023-10-13T15:16:56.769Z,2.17
2023-10-13T15:19:24.906Z,2.10
2023-10-13T15:21:54.282Z,1.92
2023-10-13T15:24:29.172Z,1.57
2023-10-13T15:27:04.469Z,1.50
2023-10-13T15:29:38.761Z,1.95
2023-10-13T15:32:27.756Z,1.85
2023-10-13T15:34:57.195Z,2.33
2023-10-13T15:37:26.928Z,1.77
2023-10-13T15:39:54.931Z,1.67
2023-10-13T15:42:22.662Z,1.77
2023-10-13T15:44:51.449Z,1.92
2023-10-13T15:49:50.172Z,1.70
2023-10-13T15:52:17.827Z,1.85
2023-10-13T15:54:45.553Z,2.13
2023-10-13T15:57:17.922Z,2.17
2023-10-13T15:59:47.855Z,1.70
2023-10-13T16:02:21.155Z,1.53
2023-10-13T16:04:49.395Z,1.75
2023-10-13T16:07:19.376Z,1.80
2023-10-13T16:09:47.103Z,1.80
2023-10-13T16:12:16.844Z,1.88
2023-10-13T16:14:44.530Z,1.63
2023-10-13T16:17:12.148Z,1.77
2023-10-13T16:19:41.031Z,2.25
2023-10-13T16:22:11.363Z,1.67
2023-10-13T16:24:39.115Z,1.50
2023-10-13T16:27:08.227Z,1.73
2023-10-13T16:29:35.928Z,1.30
2023-10-13T16:32:04.720Z,1.88
2023-10-13T16:34:32.557Z,1.73
2023-10-13T16:37:00.324Z,2.08
2023-10-13T16:39:29.750Z,1.80
2023-10-13T16:41:57.506Z,1.95
2023-10-13T16:44:28.249Z,1.73
2023-10-13T16:47:02.413Z,1.65
2023-10-13T16:49:31.765Z,1.95
2023-10-13T16:52:01.908Z,1.67
2023-10-13T16:54:29.679Z,1.80
2023-10-13T16:56:57.335Z,2.05
2023-10-13T16:59:28.002Z,1.70
2023-10-13T17:01:56.497Z,1.65
2023-10-13T17:04:28.189Z,1.77
2023-10-13T17:06:56.452Z,1.58
2023-10-13T17:09:25.902Z,1.63
2023-10-13T17:11:53.899Z,1.92
2023-10-13T17:14:21.760Z,1.58
2023-10-13T17:16:49.717Z,1.87
2023-10-13T17:19:17.381Z,1.52
2023-10-13T17:21:45.789Z,2.25
2023-10-13T17:24:14.881Z,1.98
2023-10-13T17:26:42.555Z,1.73
2023-10-13T17:29:13.075Z,2.00
2023-10-13T17:31:40.732Z,1.80
2023-10-13T17:34:08.513Z,1.75
2023-10-13T17:36:36.644Z,1.73
2023-10-13T17:39:04.982Z,1.88
2023-10-13T17:41:33.904Z,1.90
2023-10-13T17:44:03.678Z,1.88
2023-10-13T17:46:31.531Z,2.10
2023-10-13T17:48:59.411Z,1.63
2023-10-13T17:51:27.115Z,2.08
2023-10-13T17:53:56.674Z,1.60
2023-10-13T17:56:24.799Z,1.75
2023-10-13T17:58:55.047Z,1.88
2023-10-13T18:01:22.782Z,1.85
2023-10-13T18:03:52.795Z,1.75
2023-10-13T18:06:22.535Z,1.93
2023-10-13T18:08:52.754Z,1.75
2023-10-13T18:11:20.549Z,1.85
2023-10-13T18:13:49.738Z,1.73
2023-10-13T18:16:19.212Z,1.75
2023-10-13T18:18:48.186Z,1.93
2023-10-13T18:21:16.119Z,1.85
2023-10-13T18:23:44.570Z,1.73
2023-10-13T18:26:16.740Z,1.60
2023-10-13T18:28:45.173Z,1.70
2023-10-13T18:31:13.379Z,1.70
2023-10-13T18:33:42.734Z,1.83
2023-10-13T18:36:29.457Z,1.80
2023-10-13T18:39:02.168Z,1.55
2023-10-13T18:41:32.164Z,1.90
2023-10-13T18:44:01.146Z,1.83
2023-10-13T18:46:30.637Z,2.20
2023-10-13T18:49:03.420Z,1.80
2023-10-13T18:51:34.081Z,1.80
2023-10-13T18:54:03.296Z,2.08
2023-10-13T18:56:32.468Z,2.20
2023-10-13T18:59:03.814Z,1.65
2023-10-13T19:01:36.169Z,1.75
2023-10-13T19:04:09.774Z,1.65
2023-10-13T19:06:37.599Z,1.70
2023-10-13T19:09:09.163Z,1.93
2023-10-13T19:11:40.979Z,1.80
2023-10-13T19:14:11.997Z,2.05
2023-10-13T19:16:47.699Z,1.63
2023-10-13T19:19:16.156Z,1.90
2023-10-13T19:21:47.968Z,1.80
2023-10-13T19:24:16.738Z,1.98
2023-10-13T19:26:45.113Z,1.77
2023-10-13T19:29:13.058Z,1.80
2023-10-13T19:31:40.890Z,1.75
2023-10-13T19:34:08.829Z,1.77
2023-10-13T19:36:36.761Z,1.65
2023-10-13T19:39:08.873Z,1.83
2023-10-13T19:41:38.138Z,1.70
2023-10-13T19:44:06.470Z,1.90
2023-10-13T19:46:38.771Z,2.00
2023-10-13T19:49:06.845Z,1.85
2023-10-13T19:51:35.883Z,2.00
2023-10-13T19:54:04.814Z,1.75
2023-10-13T19:56:33.975Z,1.75
2023-10-13T19:59:02.900Z,1.57
2023-10-13T20:01:35.457Z,1.77
2023-10-13T20:04:08.935Z,1.95
2023-10-13T20:06:37.395Z,1.92
2023-10-13T20:09:25.958Z,1.52
2023-10-13T20:11:54.476Z,2.17
2023-10-13T20:14:24.777Z,1.73
2023-10-13T20:16:52.518Z,2.00
2023-10-13T20:19:23.237Z,2.13
2023-10-13T20:21:51.475Z,2.15
2023-10-13T20:24:19.138Z,1.80
2023-10-13T20:26:48.378Z,1.98
2023-10-13T20:29:18.937Z,2.13
2023-10-13T20:31:50.604Z,1.65
2023-10-13T20:34:24.768Z,1.70
2023-10-13T20:36:56.238Z,2.00
2023-10-13T20:39:42.318Z,2.10
2023-10-13T20:42:10.224Z,2.05
2023-10-13T20:44:41.581Z,1.67
2023-10-13T20:47:12.457Z,1.85
2023-10-13T20:49:41.739Z,1.93
2023-10-13T20:52:09.628Z,2.13
2023-10-13T20:54:37.525Z,1.90
2023-10-13T20:57:09.690Z,1.95
2023-10-13T20:59:41.235Z,1.67
2023-10-13T21:02:09.199Z,1.80
2023-10-13T21:04:37.326Z,1.50
2023-10-13T21:07:06.296Z,1.95
2023-10-13T21:09:34.253Z,1.88
2023-10-13T21:12:06.154Z,1.48
2023-10-13T21:14:35.640Z,1.73
2023-10-13T21:17:05.772Z,1.45
2023-10-13T21:19:37.591Z,1.70
2023-10-13T21:22:09.686Z,1.35
2023-10-13T21:24:40.593Z,1.58
2023-10-13T21:27:08.249Z,2.10
2023-10-13T21:29:36.137Z,1.80
2023-10-13T21:32:04.540Z,2.05
2023-10-13T21:34:32.472Z,1.98
2023-10-13T21:37:01.157Z,1.77
2023-10-13T21:39:45.491Z,1.93
2023-10-13T21:42:13.326Z,2.25
2023-10-13T21:44:40.931Z,1.98
2023-10-13T21:47:08.575Z,2.08
2023-10-13T21:49:37.003Z,1.58
2023-10-13T21:52:04.902Z,1.70
2023-10-13T21:54:33.763Z,1.88
2023-10-13T21:57:02.933Z,1.95
2023-10-13T21:59:30.831Z,1.80
2023-10-13T22:01:58.410Z,1.77
2023-10-13T22:04:32.094Z,1.73
2023-10-13T22:07:03.062Z,1.90
2023-10-13T22:09:30.942Z,2.33
2023-10-13T22:11:58.652Z,1.88
2023-10-13T22:14:26.717Z,2.08
2023-10-13T22:16:54.322Z,1.93
2023-10-13T22:19:22.240Z,1.73
2023-10-13T22:21:53.519Z,1.80
2023-10-13T22:24:22.234Z,1.48
2023-10-13T22:26:50.047Z,1.70
2023-10-13T22:29:18.569Z,2.03
2023-10-13T22:31:46.379Z,1.58
2023-10-13T22:34:15.726Z,1.83
2023-10-13T22:36:59.042Z,1.67
2023-10-13T22:39:34.841Z,1.92
2023-10-13T22:42:02.938Z,1.63
2023-10-13T22:44:30.711Z,1.48
2023-10-13T22:46:58.423Z,1.80
2023-10-13T22:49:26.043Z,1.73
2023-10-13T22:51:54.833Z,1.85
2023-10-13T22:54:22.513Z,2.00
2023-10-13T22:56:51.290Z,1.65
2023-10-13T22:59:18.989Z,1.95
2023-10-13T23:01:46.766Z,2.00
2023-10-13T23:04:17.700Z,1.65
2023-10-13T23:06:51.081Z,1.63
2023-10-13T23:09:28.168Z,1.70
2023-10-13T23:12:06.863Z,1.70
2023-10-13T23:14:34.750Z,1.85
2023-10-13T23:17:04.320Z,1.83
2023-10-13T23:19:36.829Z,1.83
2023-10-13T23:22:07.816Z,1.88
2023-10-13T23:24:38.616Z,1.70
2023-10-13T23:27:06.602Z,1.95
2023-10-13T23:29:37.521Z,1.92
2023-10-13T23:32:05.545Z,1.80
2023-10-13T23:34:33.243Z,1.77
2023-10-13T23:37:03.056Z,1.90
2023-10-13T23:39:36.583Z,1.77
2023-10-13T23:42:08.762Z,2.05
2023-10-13T23:44:36.782Z,1.60
2023-10-13T23:47:05.488Z,1.60
2023-10-13T23:49:33.233Z,1.63
2023-10-13T23:52:04.161Z,1.52
2023-10-13T23:54:32.376Z,1.75
2023-10-13T23:57:02.349Z,2.03
2023-10-13T23:59:30.344Z,2.00
